Pagina principale
METAR-TAF:

METAR-TAF

Aeroporti :

Ancona, Italia

latitudine: 43-37N, longitudine: 013-22E, altezza: 12 m

Osservazione

Il bollettino è stato emesso 40 minuti fa, alle 12:50 UTC
Vento 7 kt da nord, variando fra nord-ovest e nord/nord-est
Temperature 20°C
Umidità 78%
Pressione 1017 hPa
Visibilità: 6000 m

METAR: LIPY 191250Z 35007KT 320V020 6000 NSC 20/16 Q1017

Ora: 15:30 (13:30 UTC)

Previsione

Il bollettino è stato emesso 2 ore e 30 minuti fa, alle 11:00 UTC
Previsione valida dal 19 alle 12 UTC al 20 alle 12 UTC
Vento 4 kt da direzioni variabili
Visibilità: 7000 m
Nubi sparse ad un'altezza di 2000 ft
Temporaneamente
dal 19 alle 21 UTC al 20 alle 07 UTC
Visibilità: 3000 m
foschia

TAF: LIPY 191100Z 1912/2012 VRB04KT 7000 SCT020 TEMPO 1921/2007 3000 BR

Osservazioni e previsioni meteorologiche di più di 4000 aeroporti (messaggi METAR e TAF).

Le stazioni disponibili sono rappresentate dai dischi gialli e rossi sulla carta.

Puntare il mouse per vedere il nome della stazione.

Clicca sopra per visualizzare le osservazioni e previsioni meteorologiche.

Per cambiare la mappa : fare clic sui pulsanti verdi con una croce nera per ingrandire, il pulsante verde con un trattino per diminuire, o sulla freccia verde per le mappe adiacenti.


METAR-TAF: